To NAV CANADA Home Page Login to a new session Search on AWWS site Feedback and Comments Disclaimer Vers la page française équivalente Tips FAQ What's new on the site To the Forecasts and Observations / NOTAM section To "File a Flight Plan" website Publications and other links Update of the User's profile FIC Telephone Numbers My Weather Data Folder Route Weather Data Regional Weather Data Local Weather Data To the Forecasts and Observations / NOTAM section
Request Generated 08/22/2017 at 03:20:51 UTC . Weather information available at that time is displayed.

METAR/TAF

KITCHENER/WATERLOO/ON    (show WxCam)

METAR CYKF 220300Z AUTO 18005KT 9SM SCT230 21/18 A3001 RMK SLP158
DENSITY ALT 1800FT=
METAR CYKF 220200Z AUTO 18004KT 9SM CLR 22/18 A3002 RMK SLP161
DENSITY ALT 1900FT=
METAR CYKF 220100Z AUTO 19006KT 9SM CLR 23/19 A3003 RMK SLP168
DENSITY ALT 2100FT=

TAF CYKF 220138Z 2202/2214 19005KT P6SM BKN240
FM220700 22008KT 6SM BR FEW008 SCT050
BECMG 2211/2213 21017G27KT
RMK FCST BASED ON AUTO OBS. NXT FCST BY 220800Z=
Your time UTC time
Weather data provided by Environment Canada and NAV CANADA